sensor_id;sensor_type;location;lat;lon;timestamp;P1;durP1;ratioP1;P2;durP2;ratioP2
14890;SDS011;7537;48.014;11.590;2023-07-13T00:03:13;2.61;;;2.58;;
14890;SDS011;7537;48.014;11.590;2023-07-13T00:08:41;2.86;;;2.54;;
14890;SDS011;7537;48.014;11.590;2023-07-13T00:14:09;2.80;;;2.86;;
14890;SDS011;7537;48.014;11.590;2023-07-13T00:19:40;3.38;;;2.66;;
14890;SDS011;7537;48.014;11.590;2023-07-13T00:25:14;4.82;;;2.88;;
14890;SDS011;7537;48.014;11.590;2023-07-13T00:30:42;2.64;;;2.78;;
14890;SDS011;7537;48.014;11.590;2023-07-13T00:36:13;2.77;;;2.52;;
14890;SDS011;7537;48.014;11.590;2023-07-13T00:41:41;4.31;;;2.94;;
14890;SDS011;7537;48.014;11.590;2023-07-13T00:47:08;3.43;;;2.94;;
14890;SDS011;7537;48.014;11.590;2023-07-13T00:52:36;3.19;;;2.78;;
14890;SDS011;7537;48.014;11.590;2023-07-13T00:58:05;3.46;;;2.84;;
14890;SDS011;7537;48.014;11.590;2023-07-13T01:03:33;4.73;;;2.61;;
14890;SDS011;7537;48.014;11.590;2023-07-13T01:09:03;2.34;;;2.44;;
14890;SDS011;7537;48.014;11.590;2023-07-13T01:14:30;2.24;;;2.37;;
14890;SDS011;7537;48.014;11.590;2023-07-13T01:19:58;3.18;;;2.75;;
14890;SDS011;7537;48.014;11.590;2023-07-13T01:25:25;3.63;;;3.04;;
14890;SDS011;7537;48.014;11.590;2023-07-13T01:30:53;2.59;;;2.63;;
14890;SDS011;7537;48.014;11.590;2023-07-13T01:36:30;2.36;;;2.46;;
14890;SDS011;7537;48.014;11.590;2023-07-13T01:41:58;3.56;;;3.36;;
14890;SDS011;7537;48.014;11.590;2023-07-13T01:47:31;2.61;;;2.71;;
14890;SDS011;7537;48.014;11.590;2023-07-13T01:53:01;3.07;;;2.63;;
14890;SDS011;7537;48.014;11.590;2023-07-13T01:58:29;7.25;;;3.45;;
14890;SDS011;7537;48.014;11.590;2023-07-13T02:03:56;4.35;;;3.05;;
14890;SDS011;7537;48.014;11.590;2023-07-13T02:09:24;2.69;;;2.79;;
14890;SDS011;7537;48.014;11.590;2023-07-13T02:14:51;3.15;;;2.95;;
14890;SDS011;7537;48.014;11.590;2023-07-13T02:20:19;2.31;;;2.41;;
14890;SDS011;7537;48.014;11.590;2023-07-13T02:25:47;2.61;;;2.73;;
14890;SDS011;7537;48.014;11.590;2023-07-13T02:31:15;2.91;;;2.43;;
14890;SDS011;7537;48.014;11.590;2023-07-13T02:36:46;2.64;;;2.59;;
14890;SDS011;7537;48.014;11.590;2023-07-13T02:42:14;2.48;;;2.59;;
14890;SDS011;7537;48.014;11.590;2023-07-13T02:47:42;3.94;;;2.44;;
14890;SDS011;7537;48.014;11.590;2023-07-13T02:53:13;3.38;;;3.06;;
14890;SDS011;7537;48.014;11.590;2023-07-13T02:58:42;3.28;;;3.15;;
14890;SDS011;7537;48.014;11.590;2023-07-13T03:04:09;3.84;;;2.69;;
14890;SDS011;7537;48.014;11.590;2023-07-13T03:09:37;3.87;;;2.90;;
14890;SDS011;7537;48.014;11.590;2023-07-13T03:15:05;4.31;;;3.53;;
14890;SDS011;7537;48.014;11.590;2023-07-13T03:20:33;7.13;;;4.41;;
14890;SDS011;7537;48.014;11.590;2023-07-13T03:26:02;4.34;;;3.75;;
14890;SDS011;7537;48.014;11.590;2023-07-13T03:31:32;6.83;;;4.21;;
14890;SDS011;7537;48.014;11.590;2023-07-13T03:37:05;3.89;;;3.77;;
14890;SDS011;7537;48.014;11.590;2023-07-13T03:42:33;4.59;;;3.86;;
14890;SDS011;7537;48.014;11.590;2023-07-13T03:48:01;3.00;;;2.96;;
14890;SDS011;7537;48.014;11.590;2023-07-13T03:53:29;3.14;;;3.12;;
14890;SDS011;7537;48.014;11.590;2023-07-13T03:58:58;10.46;;;2.71;;
14890;SDS011;7537;48.014;11.590;2023-07-13T04:04:28;2.59;;;2.68;;
14890;SDS011;7537;48.014;11.590;2023-07-13T04:09:56;4.89;;;3.64;;
14890;SDS011;7537;48.014;11.590;2023-07-13T04:15:23;3.49;;;3.40;;
14890;SDS011;7537;48.014;11.590;2023-07-13T04:20:51;3.06;;;3.13;;
14890;SDS011;7537;48.014;11.590;2023-07-13T04:26:18;3.00;;;3.14;;
14890;SDS011;7537;48.014;11.590;2023-07-13T04:31:46;3.54;;;2.97;;
14890;SDS011;7537;48.014;11.590;2023-07-13T04:37:17;3.65;;;3.13;;
14890;SDS011;7537;48.014;11.590;2023-07-13T04:42:47;2.61;;;2.65;;
14890;SDS011;7537;48.014;11.590;2023-07-13T04:48:14;3.10;;;2.54;;
14890;SDS011;7537;48.014;11.590;2023-07-13T04:53:42;6.26;;;2.85;;
14890;SDS011;7537;48.014;11.590;2023-07-13T04:59:09;3.08;;;2.69;;
14890;SDS011;7537;48.014;11.590;2023-07-13T05:04:37;5.20;;;2.62;;
14890;SDS011;7537;48.014;11.590;2023-07-13T05:10:06;2.35;;;2.44;;
14890;SDS011;7537;48.014;11.590;2023-07-13T05:15:33;6.46;;;2.86;;
14890;SDS011;7537;48.014;11.590;2023-07-13T05:21:02;2.29;;;2.35;;
14890;SDS011;7537;48.014;11.590;2023-07-13T05:26:30;3.61;;;2.76;;
14890;SDS011;7537;48.014;11.590;2023-07-13T05:32:04;2.81;;;2.94;;
14890;SDS011;7537;48.014;11.590;2023-07-13T05:37:40;2.26;;;2.33;;
14890;SDS011;7537;48.014;11.590;2023-07-13T05:43:09;2.92;;;3.01;;
14890;SDS011;7537;48.014;11.590;2023-07-13T05:48:36;3.36;;;2.50;;
14890;SDS011;7537;48.014;11.590;2023-07-13T05:54:04;4.21;;;3.16;;
14890;SDS011;7537;48.014;11.590;2023-07-13T05:59:31;2.63;;;2.71;;
14890;SDS011;7537;48.014;11.590;2023-07-13T06:04:59;2.43;;;2.51;;
14890;SDS011;7537;48.014;11.590;2023-07-13T06:10:26;3.41;;;2.83;;
14890;SDS011;7537;48.014;11.590;2023-07-13T06:15:54;3.56;;;3.04;;
14890;SDS011;7537;48.014;11.590;2023-07-13T06:21:22;4.12;;;3.76;;
14890;SDS011;7537;48.014;11.590;2023-07-13T06:26:50;4.70;;;4.25;;
14890;SDS011;7537;48.014;11.590;2023-07-13T06:32:17;5.71;;;3.14;;
14890;SDS011;7537;48.014;11.590;2023-07-13T06:37:48;2.98;;;2.87;;
14890;SDS011;7537;48.014;11.590;2023-07-13T06:43:16;3.00;;;2.57;;
14890;SDS011;7537;48.014;11.590;2023-07-13T06:48:43;4.37;;;3.19;;
14890;SDS011;7537;48.014;11.590;2023-07-13T06:54:11;3.54;;;3.13;;
14890;SDS011;7537;48.014;11.590;2023-07-13T06:59:39;3.46;;;3.05;;
14890;SDS011;7537;48.014;11.590;2023-07-13T07:05:06;4.19;;;3.07;;
14890;SDS011;7537;48.014;11.590;2023-07-13T07:10:34;4.94;;;3.36;;
14890;SDS011;7537;48.014;11.590;2023-07-13T07:16:02;3.32;;;3.38;;
14890;SDS011;7537;48.014;11.590;2023-07-13T07:21:29;3.34;;;3.34;;
14890;SDS011;7537;48.014;11.590;2023-07-13T07:26:57;3.27;;;3.05;;
14890;SDS011;7537;48.014;11.590;2023-07-13T07:32:24;3.63;;;3.59;;
14890;SDS011;7537;48.014;11.590;2023-07-13T07:37:55;3.34;;;2.90;;
14890;SDS011;7537;48.014;11.590;2023-07-13T07:43:26;6.96;;;2.94;;
14890;SDS011;7537;48.014;11.590;2023-07-13T07:48:56;4.56;;;2.78;;
14890;SDS011;7537;48.014;11.590;2023-07-13T07:54:29;2.69;;;2.79;;
14890;SDS011;7537;48.014;11.590;2023-07-13T07:59:56;3.71;;;3.02;;
14890;SDS011;7537;48.014;11.590;2023-07-13T08:05:24;3.63;;;2.91;;
14890;SDS011;7537;48.014;11.590;2023-07-13T08:11:03;2.65;;;2.73;;
14890;SDS011;7537;48.014;11.590;2023-07-13T08:16:32;4.79;;;3.49;;
14890;SDS011;7537;48.014;11.590;2023-07-13T08:21:59;5.45;;;2.91;;
14890;SDS011;7537;48.014;11.590;2023-07-13T08:27:29;7.39;;;3.15;;
14890;SDS011;7537;48.014;11.590;2023-07-13T08:32:57;2.52;;;2.66;;
14890;SDS011;7537;48.014;11.590;2023-07-13T08:38:33;4.22;;;2.89;;
14890;SDS011;7537;48.014;11.590;2023-07-13T08:44:00;3.92;;;2.98;;
14890;SDS011;7537;48.014;11.590;2023-07-13T08:49:29;5.36;;;2.68;;
14890;SDS011;7537;48.014;11.590;2023-07-13T08:54:57;7.99;;;3.22;;
14890;SDS011;7537;48.014;11.590;2023-07-13T09:00:33;3.40;;;2.76;;
14890;SDS011;7537;48.014;11.590;2023-07-13T09:06:02;2.72;;;2.46;;
14890;SDS011;7537;48.014;11.590;2023-07-13T09:11:34;4.43;;;2.56;;
14890;SDS011;7537;48.014;11.590;2023-07-13T09:17:10;5.98;;;2.76;;
14890;SDS011;7537;48.014;11.590;2023-07-13T09:22:39;2.48;;;2.51;;
14890;SDS011;7537;48.014;11.590;2023-07-13T09:28:10;3.64;;;2.33;;
14890;SDS011;7537;48.014;11.590;2023-07-13T09:33:38;4.30;;;2.57;;
14890;SDS011;7537;48.014;11.590;2023-07-13T09:39:15;3.25;;;2.09;;
14890;SDS011;7537;48.014;11.590;2023-07-13T09:44:51;3.94;;;3.14;;
14890;SDS011;7537;48.014;11.590;2023-07-13T09:50:19;2.29;;;2.42;;
14890;SDS011;7537;48.014;11.590;2023-07-13T09:55:51;2.47;;;2.34;;
14890;SDS011;7537;48.014;11.590;2023-07-13T10:01:22;2.32;;;2.16;;
14890;SDS011;7537;48.014;11.590;2023-07-13T10:07:11;4.24;;;2.87;;
14890;SDS011;7537;48.014;11.590;2023-07-13T10:12:42;2.58;;;2.35;;
14890;SDS011;7537;48.014;11.590;2023-07-13T10:18:11;2.79;;;2.31;;
14890;SDS011;7537;48.014;11.590;2023-07-13T10:23:40;2.50;;;2.52;;
14890;SDS011;7537;48.014;11.590;2023-07-13T10:29:10;2.73;;;2.53;;
14890;SDS011;7537;48.014;11.590;2023-07-13T10:34:40;5.13;;;2.59;;
14890;SDS011;7537;48.014;11.590;2023-07-13T10:40:14;2.22;;;2.07;;
14890;SDS011;7537;48.014;11.590;2023-07-13T10:45:45;4.26;;;2.14;;
14890;SDS011;7537;48.014;11.590;2023-07-13T10:51:14;2.59;;;1.83;;
14890;SDS011;7537;48.014;11.590;2023-07-13T10:56:46;2.34;;;2.08;;
14890;SDS011;7537;48.014;11.590;2023-07-13T11:02:15;3.34;;;2.20;;
14890;SDS011;7537;48.014;11.590;2023-07-13T11:07:54;6.07;;;2.12;;
14890;SDS011;7537;48.014;11.590;2023-07-13T11:13:36;1.89;;;1.78;;
